createdAt,value
2023-01-11T00:01:54.125Z,7.55
2023-01-11T00:04:23.300Z,7.55
2023-01-11T00:06:50.041Z,7.57
2023-01-11T00:09:17.644Z,7.60
2023-01-11T00:11:44.966Z,7.63
2023-01-11T00:14:11.826Z,7.69
2023-01-11T00:16:40.130Z,7.71
2023-01-11T00:19:07.424Z,7.70
2023-01-11T00:21:34.615Z,7.70
2023-01-11T00:24:01.723Z,7.75
2023-01-11T00:26:29.036Z,7.87
2023-01-11T00:28:55.730Z,7.81
2023-01-11T00:31:23.013Z,7.81
2023-01-11T00:33:51.611Z,7.84
2023-01-11T00:36:18.677Z,7.84
2023-01-11T00:38:51.508Z,7.90
2023-01-11T00:41:37.739Z,7.89
2023-01-11T00:44:24.759Z,7.90
2023-01-11T00:47:10.684Z,7.90
2023-01-11T00:49:38.034Z,8.01
2023-01-11T00:52:08.942Z,8.07
2023-01-11T00:54:37.700Z,8.02
2023-01-11T00:57:07.234Z,8.10
2023-01-11T00:59:34.429Z,8.07
2023-01-11T01:02:01.101Z,8.12
2023-01-11T01:04:27.788Z,8.14
2023-01-11T01:06:55.463Z,8.15
2023-01-11T01:09:22.600Z,8.14
2023-01-11T01:11:49.374Z,8.16
2023-01-11T01:14:31.502Z,8.23
2023-01-11T01:16:59.749Z,8.21
2023-01-11T01:19:27.849Z,8.15
2023-01-11T01:21:56.317Z,8.27
2023-01-11T01:24:23.629Z,8.24
2023-01-11T01:26:50.731Z,8.23
2023-01-11T01:29:17.426Z,8.24
2023-01-11T01:31:44.775Z,8.30
2023-01-11T01:34:12.286Z,8.31
2023-01-11T01:36:39.269Z,8.39
2023-01-11T01:39:06.939Z,8.36
2023-01-11T01:41:34.387Z,8.37
2023-01-11T01:44:03.521Z,8.35
2023-01-11T01:46:32.798Z,8.40
2023-01-11T01:48:59.695Z,8.40
2023-01-11T01:51:29.497Z,8.50
2023-01-11T01:53:58.675Z,8.49
2023-01-11T01:56:28.248Z,8.42
2023-01-11T01:58:57.798Z,8.49
2023-01-11T02:01:45.197Z,8.47
2023-01-11T02:04:33.008Z,8.47
2023-01-11T02:07:02.165Z,8.44
2023-01-11T02:09:29.354Z,8.45
2023-01-11T02:11:59.146Z,8.48
2023-01-11T02:14:27.772Z,8.49
2023-01-11T02:16:56.655Z,8.41
2023-01-11T02:19:40.794Z,8.45
2023-01-11T02:22:27.058Z,8.43
2023-01-11T02:24:57.121Z,8.45
2023-01-11T02:27:33.047Z,8.44
2023-01-11T02:30:18.928Z,8.47
2023-01-11T02:33:04.996Z,8.43
2023-01-11T02:35:34.849Z,8.45
2023-01-11T02:38:01.990Z,8.45
2023-01-11T02:40:35.311Z,8.43
2023-01-11T02:43:35.707Z,8.54
2023-01-11T02:46:10.163Z,8.50
2023-01-11T02:48:40.348Z,8.55
2023-01-11T02:51:12.376Z,8.58
2023-01-11T02:53:47.362Z,8.50
2023-01-11T02:56:20.953Z,8.54
2023-01-11T02:58:49.511Z,8.57
2023-01-11T03:01:16.646Z,8.57
2023-01-11T03:03:44.274Z,8.51
2023-01-11T03:06:14.084Z,8.50
2023-01-11T03:08:44.469Z,8.51
2023-01-11T03:11:45.015Z,8.56
2023-01-11T03:14:24.040Z,8.56
2023-01-11T03:17:06.111Z,8.67
2023-01-11T03:19:53.216Z,8.62
2023-01-11T03:22:22.513Z,8.62
2023-01-11T03:25:05.753Z,8.64
2023-01-11T03:27:47.891Z,8.67
2023-01-11T03:30:21.945Z,8.69
2023-01-11T03:32:52.713Z,8.68
2023-01-11T03:35:19.260Z,8.66
2023-01-11T03:37:45.894Z,8.67
2023-01-11T03:40:16.837Z,8.69
2023-01-11T03:43:05.799Z,8.68
2023-01-11T03:45:35.716Z,8.75
2023-01-11T03:48:03.790Z,8.71
2023-01-11T03:50:31.605Z,8.76
2023-01-11T03:53:00.609Z,8.74
2023-01-11T03:55:31.375Z,8.74
2023-01-11T03:57:58.817Z,8.73
2023-01-11T04:00:26.852Z,8.76
2023-01-11T04:02:54.207Z,8.75
2023-01-11T04:05:20.980Z,8.74
2023-01-11T04:07:48.556Z,8.75
2023-01-11T04:10:15.707Z,8.77
2023-01-11T04:12:42.590Z,8.76
2023-01-11T04:15:10.057Z,8.78
2023-01-11T04:17:36.662Z,8.78
2023-01-11T04:20:03.634Z,8.80
2023-01-11T04:22:30.255Z,8.83
2023-01-11T04:24:56.843Z,8.82
2023-01-11T04:27:23.762Z,8.88
2023-01-11T04:29:50.341Z,8.89
2023-01-11T04:32:17.065Z,8.89
2023-01-11T04:34:44.188Z,8.88
2023-01-11T04:37:12.389Z,8.94
2023-01-11T04:39:39.283Z,8.95
2023-01-11T04:42:18.618Z,8.98
2023-01-11T04:44:49.009Z,9.07
2023-01-11T04:47:16.105Z,9.04
2023-01-11T04:49:42.948Z,9.09
2023-01-11T04:52:10.160Z,9.12
2023-01-11T04:54:37.679Z,9.16
2023-01-11T04:57:05.420Z,9.19
2023-01-11T04:59:32.280Z,9.24
2023-01-11T05:01:58.861Z,9.29
2023-01-11T05:04:25.792Z,9.36
2023-01-11T05:06:52.872Z,9.33
2023-01-11T05:09:19.577Z,9.33
2023-01-11T05:11:46.326Z,9.34
2023-01-11T05:14:14.401Z,9.38
2023-01-11T05:16:41.463Z,9.39
2023-01-11T05:19:09.938Z,9.39
2023-01-11T05:21:39.227Z,9.44
2023-01-11T05:24:07.315Z,9.45
2023-01-11T05:26:36.477Z,9.51
2023-01-11T05:29:07.343Z,9.50
2023-01-11T05:31:34.820Z,9.54
2023-01-11T05:34:01.416Z,9.45
2023-01-11T05:36:28.836Z,9.55
2023-01-11T05:38:56.253Z,9.54
2023-01-11T05:41:24.399Z,9.56
2023-01-11T05:44:10.447Z,9.58
2023-01-11T05:46:38.739Z,9.59
2023-01-11T05:49:06.523Z,9.61
2023-01-11T05:51:33.855Z,9.61
2023-01-11T05:54:01.271Z,9.61
2023-01-11T05:56:28.525Z,9.60
2023-01-11T05:58:55.665Z,9.58
2023-01-11T06:01:23.047Z,9.62
2023-01-11T06:03:50.015Z,9.65
2023-01-11T06:06:17.871Z,9.69
2023-01-11T06:08:45.011Z,9.76
2023-01-11T06:11:12.485Z,9.70
2023-01-11T06:13:39.206Z,9.72
2023-01-11T06:16:08.131Z,9.74
2023-01-11T06:18:36.513Z,9.92
2023-01-11T06:21:04.102Z,9.83
2023-01-11T06:23:32.632Z,9.80
2023-01-11T06:26:03.138Z,9.81
2023-01-11T06:28:30.289Z,9.89
2023-01-11T06:30:58.354Z,9.87
2023-01-11T06:33:26.404Z,9.92
2023-01-11T06:35:53.552Z,9.92
2023-01-11T06:38:21.965Z,9.98
2023-01-11T06:40:56.562Z,10.00
2023-01-11T06:43:24.305Z,10.05
2023-01-11T06:45:51.058Z,10.08
2023-01-11T06:48:19.679Z,10.19
2023-01-11T06:50:50.782Z,10.31
2023-01-11T06:53:17.788Z,10.41
2023-01-11T06:55:45.116Z,10.53
2023-01-11T06:58:11.842Z,10.67
2023-01-11T07:00:38.666Z,10.66
2023-01-11T07:03:06.309Z,10.68
2023-01-11T07:05:34.127Z,10.78
2023-01-11T07:08:01.080Z,10.76
2023-01-11T07:10:28.707Z,10.77
2023-01-11T07:12:56.331Z,10.81
2023-01-11T07:15:23.039Z,10.81
2023-01-11T07:17:53.718Z,10.85
2023-01-11T07:20:20.419Z,10.85
2023-01-11T07:22:47.333Z,10.87
2023-01-11T07:25:14.489Z,10.85
2023-01-11T07:27:41.919Z,10.93
2023-01-11T07:30:10.000Z,11.03
2023-01-11T07:32:37.153Z,11.03
2023-01-11T07:35:04.444Z,11.02
2023-01-11T07:37:35.172Z,11.02
2023-01-11T07:40:02.325Z,11.04
2023-01-11T07:42:48.346Z,11.07
2023-01-11T07:45:15.870Z,11.02
2023-01-11T07:47:42.852Z,11.00
2023-01-11T07:50:09.931Z,10.98
2023-01-11T07:52:36.646Z,11.00
2023-01-11T07:55:04.439Z,11.00
2023-01-11T07:57:31.133Z,11.06
2023-01-11T07:59:58.527Z,11.01
2023-01-11T08:02:25.506Z,11.09
2023-01-11T08:04:52.221Z,11.11
2023-01-11T08:07:18.982Z,11.08
2023-01-11T08:09:45.725Z,11.07
2023-01-11T08:12:31.240Z,11.08
2023-01-11T08:14:58.454Z,11.10
2023-01-11T08:17:26.031Z,11.09
2023-01-11T08:19:52.889Z,11.06
2023-01-11T08:22:19.484Z,11.10
2023-01-11T08:24:46.364Z,11.10
2023-01-11T08:27:13.509Z,10.96
2023-01-11T08:29:43.945Z,10.92
2023-01-11T08:32:11.425Z,10.92
2023-01-11T08:34:38.873Z,10.85
2023-01-11T08:37:05.790Z,10.87
2023-01-11T08:39:32.748Z,10.83
2023-01-11T08:42:00.177Z,10.77
2023-01-11T08:44:35.239Z,10.75
2023-01-11T08:47:04.865Z,10.71
2023-01-11T08:49:31.725Z,10.74
2023-01-11T08:51:58.475Z,10.73
2023-01-11T08:54:25.447Z,10.67
2023-01-11T08:56:52.189Z,10.65
2023-01-11T08:59:19.956Z,10.74
2023-01-11T09:01:47.179Z,10.76
2023-01-11T09:04:24.109Z,10.70
2023-01-11T09:06:51.753Z,10.73
2023-01-11T09:09:18.734Z,10.63
2023-01-11T09:11:54.834Z,10.53
2023-01-11T09:14:22.138Z,10.51
2023-01-11T09:16:48.903Z,10.52
2023-01-11T09:19:15.653Z,10.48
2023-01-11T09:21:42.979Z,10.45
2023-01-11T09:24:09.957Z,10.53
2023-01-11T09:26:38.097Z,10.45
2023-01-11T09:29:05.156Z,10.43
2023-01-11T09:31:31.978Z,10.41
2023-01-11T09:33:58.727Z,10.43
2023-01-11T09:36:27.771Z,10.48
2023-01-11T09:38:57.785Z,10.40
2023-01-11T09:41:45.009Z,10.41
2023-01-11T09:44:19.133Z,10.39
2023-01-11T09:46:49.243Z,10.34
2023-01-11T09:49:38.261Z,10.35
2023-01-11T09:52:24.108Z,10.38
2023-01-11T09:54:51.562Z,10.40
2023-01-11T09:57:26.706Z,10.33
2023-01-11T09:59:59.255Z,10.34
2023-01-11T10:02:37.591Z,10.36
2023-01-11T10:05:19.418Z,10.32
2023-01-11T10:18:27.727Z,10.27
2023-01-11T10:19:37.335Z,10.32
2023-01-11T10:22:23.349Z,10.29
2023-01-11T10:24:56.504Z,10.27
2023-01-11T10:27:34.249Z,10.36
2023-01-11T10:30:28.724Z,10.39
2023-01-11T10:33:18.297Z,10.33
2023-01-11T10:36:06.021Z,10.40
2023-01-11T10:38:43.654Z,10.41
2023-01-11T10:41:22.355Z,10.37
2023-01-11T10:43:57.820Z,10.37
2023-01-11T10:46:26.360Z,10.34
2023-01-11T10:49:03.682Z,10.26
2023-01-11T10:51:36.972Z,10.28
2023-01-11T10:54:16.163Z,10.25
2023-01-11T10:57:02.394Z,10.23
2023-01-11T10:59:30.974Z,10.26
2023-01-11T11:02:07.546Z,10.21
2023-01-11T11:04:39.960Z,10.29
2023-01-11T11:07:21.699Z,10.36
2023-01-11T11:09:48.365Z,10.30
2023-01-11T11:12:35.844Z,10.32
2023-01-11T11:15:09.023Z,10.38
2023-01-11T11:17:37.023Z,10.46
2023-01-11T11:20:13.138Z,10.60
2023-01-11T11:22:40.345Z,10.67
2023-01-11T11:25:18.460Z,10.73
2023-01-11T11:27:58.280Z,10.62
2023-01-11T11:30:30.177Z,10.70
2023-01-11T11:33:00.795Z,10.78
2023-01-11T11:35:38.194Z,10.73
2023-01-11T11:38:05.885Z,10.66
2023-01-11T11:40:34.848Z,10.66
2023-01-11T11:43:19.797Z,10.66
2023-01-11T11:45:50.981Z,10.74
2023-01-11T11:48:17.572Z,10.76
2023-01-11T11:50:45.914Z,10.61
2023-01-11T11:53:24.858Z,10.63
2023-01-11T11:55:52.214Z,10.59
2023-01-11T11:58:21.133Z,10.59
2023-01-11T12:00:49.976Z,10.62
2023-01-11T12:03:30.684Z,10.62
2023-01-11T12:06:02.586Z,10.62
2023-01-11T12:08:31.422Z,10.63
2023-01-11T12:11:02.712Z,10.51
2023-01-11T12:13:34.364Z,10.45
2023-01-11T12:16:03.003Z,10.45
2023-01-11T12:18:33.473Z,10.32
2023-01-11T12:21:09.491Z,10.28
2023-01-11T12:23:37.531Z,10.30
2023-01-11T12:26:04.453Z,10.14
2023-01-11T12:28:31.850Z,10.17
2023-01-11T12:31:01.786Z,10.26
2023-01-11T12:33:43.518Z,10.24
2023-01-11T12:36:17.794Z,10.25
2023-01-11T12:39:11.333Z,10.35
2023-01-11T12:41:44.000Z,10.33
2023-01-11T12:44:18.702Z,10.40
2023-01-11T12:47:04.380Z,10.40
2023-01-11T12:49:49.948Z,10.45
2023-01-11T12:52:17.566Z,10.49
2023-01-11T12:55:04.497Z,10.46
2023-01-11T12:57:31.350Z,10.51
2023-01-11T13:00:01.331Z,10.49
2023-01-11T13:02:29.203Z,10.50
2023-01-11T13:05:14.309Z,10.55
2023-01-11T13:08:02.643Z,10.53
2023-01-11T13:10:29.370Z,10.61
2023-01-11T13:13:06.429Z,10.56
2023-01-11T13:15:42.125Z,10.55
2023-01-11T13:18:31.610Z,10.58
2023-01-11T13:21:04.408Z,10.61
2023-01-11T13:23:33.217Z,10.61
2023-01-11T13:26:06.267Z,10.64
2023-01-11T13:28:35.737Z,10.60
2023-01-11T13:31:03.768Z,10.64
2023-01-11T13:33:32.582Z,10.73
2023-01-11T13:36:23.659Z,10.72
2023-01-11T13:38:56.260Z,10.70
2023-01-11T13:41:25.922Z,10.72
2023-01-11T13:44:06.961Z,10.79
2023-01-11T13:46:45.920Z,10.83
2023-01-11T13:49:38.727Z,10.80
2023-01-11T13:52:14.006Z,10.90
2023-01-11T13:55:25.060Z,10.88
2023-01-11T13:57:56.808Z,10.76
2023-01-11T14:00:35.804Z,10.76
2023-01-11T14:03:11.128Z,10.79
2023-01-11T14:05:51.213Z,10.84
2023-01-11T14:08:25.759Z,10.93
2023-01-11T14:11:04.292Z,11.05
2023-01-11T14:14:09.126Z,11.07
2023-01-11T14:16:36.661Z,10.90
2023-01-11T14:19:06.619Z,10.88
2023-01-11T14:21:38.798Z,11.04
2023-01-11T14:24:06.324Z,10.99
2023-01-11T14:26:33.061Z,11.00
2023-01-11T14:29:02.354Z,11.03
2023-01-11T14:31:37.839Z,10.97
2023-01-11T14:34:11.038Z,11.04
2023-01-11T14:36:49.223Z,11.06
2023-01-11T14:39:28.599Z,11.00
2023-01-11T14:42:29.287Z,10.90
2023-01-11T14:45:16.915Z,10.90
2023-01-11T14:47:43.503Z,10.80
2023-01-11T14:50:23.742Z,10.83
2023-01-11T14:52:51.425Z,10.72
2023-01-11T14:55:21.101Z,10.75
2023-01-11T14:58:04.908Z,10.70
2023-01-11T15:00:31.560Z,10.73
2023-01-11T15:03:01.002Z,10.70
2023-01-11T15:05:33.893Z,10.70
2023-01-11T15:08:15.524Z,10.67
2023-01-11T15:11:01.254Z,10.62
2023-01-11T15:13:34.649Z,10.57
2023-01-11T15:16:33.428Z,10.50
2023-01-11T15:19:01.880Z,10.41
2023-01-11T15:21:50.400Z,10.35
2023-01-11T15:24:28.177Z,10.37
2023-01-11T15:26:56.061Z,10.30
2023-01-11T15:29:26.340Z,10.33
2023-01-11T15:32:02.246Z,10.27
2023-01-11T15:34:32.703Z,10.21
2023-01-11T15:36:59.568Z,10.17
2023-01-11T15:39:48.398Z,10.23
2023-01-11T15:42:15.147Z,10.18
2023-01-11T15:45:00.451Z,10.14
2023-01-11T15:47:36.181Z,10.18
2023-01-11T15:50:06.364Z,10.16
2023-01-11T15:52:51.969Z,10.19
2023-01-11T15:55:21.507Z,10.06
2023-01-11T15:57:48.267Z,9.99
2023-01-11T16:00:36.450Z,10.00
2023-01-11T16:03:09.521Z,9.96
2023-01-11T16:05:41.574Z,9.90
2023-01-11T16:08:15.365Z,9.84
2023-01-11T16:10:42.529Z,9.81
2023-01-11T16:13:15.371Z,9.88
2023-01-11T16:16:11.123Z,9.82
2023-01-11T16:18:40.886Z,9.76
2023-01-11T16:21:15.602Z,9.75
2023-01-11T16:23:42.348Z,9.73
2023-01-11T16:26:14.312Z,9.62
2023-01-11T16:28:46.880Z,9.60
2023-01-11T16:31:13.572Z,9.59
2023-01-11T16:33:40.153Z,9.55
2023-01-11T16:36:06.996Z,9.59
2023-01-11T16:38:39.813Z,9.56
2023-01-11T16:41:08.863Z,9.61
2023-01-11T16:43:38.207Z,9.72
2023-01-11T16:46:05.053Z,9.77
2023-01-11T16:48:32.121Z,9.66
2023-01-11T16:51:07.188Z,9.63
2023-01-11T16:53:35.268Z,9.57
2023-01-11T16:56:14.891Z,9.62
2023-01-11T16:58:43.097Z,9.56
2023-01-11T17:01:11.090Z,9.67
2023-01-11T17:03:42.625Z,9.61
2023-01-11T17:06:10.807Z,9.59
2023-01-11T17:08:40.299Z,9.58
2023-01-11T17:11:22.093Z,9.53
2023-01-11T17:14:00.612Z,9.60
2023-01-11T17:16:29.451Z,9.58
2023-01-11T17:18:58.472Z,9.51
2023-01-11T17:21:26.622Z,9.43
2023-01-11T17:24:01.586Z,9.43
2023-01-11T17:26:36.950Z,9.41
2023-01-11T17:29:04.819Z,9.40
2023-01-11T17:31:35.934Z,9.51
2023-01-11T17:34:23.037Z,9.48
2023-01-11T17:36:50.109Z,9.37
2023-01-11T17:39:35.593Z,9.36
2023-01-11T17:42:23.670Z,9.30
2023-01-11T17:45:09.448Z,9.33
2023-01-11T17:47:38.639Z,9.34
2023-01-11T17:50:06.217Z,9.45
2023-01-11T17:52:43.734Z,9.50
2023-01-11T17:55:21.672Z,9.53
2023-01-11T17:58:07.002Z,9.51
2023-01-11T18:00:33.838Z,9.60
2023-01-11T18:03:01.609Z,9.64
2023-01-11T18:05:29.485Z,9.64
2023-01-11T18:07:56.972Z,9.56
2023-01-11T18:10:25.631Z,9.54
2023-01-11T18:12:53.138Z,9.48
2023-01-11T18:15:31.243Z,9.47
2023-01-11T18:17:59.002Z,9.54
2023-01-11T18:20:28.833Z,9.44
2023-01-11T18:23:13.802Z,9.39
2023-01-11T18:25:40.585Z,9.32
2023-01-11T18:28:21.186Z,9.24
2023-01-11T18:30:56.507Z,9.24
2023-01-11T18:33:24.931Z,9.24
2023-01-11T18:35:53.001Z,9.16
2023-01-11T18:38:28.742Z,9.09
2023-01-11T18:40:56.702Z,9.11
2023-01-11T18:43:28.084Z,9.10
2023-01-11T18:45:55.308Z,9.06
2023-01-11T18:48:22.800Z,9.06
2023-01-11T18:50:51.089Z,9.03
2023-01-11T18:53:18.471Z,9.13
2023-01-11T18:55:45.438Z,9.15
2023-01-11T18:58:12.718Z,9.20
2023-01-11T19:00:41.317Z,9.20
2023-01-11T19:03:09.836Z,9.12
2023-01-11T19:05:36.809Z,9.12
2023-01-11T19:08:03.870Z,9.15
2023-01-11T19:10:30.641Z,9.09
2023-01-11T19:12:58.151Z,9.06
2023-01-11T19:15:25.317Z,9.04
2023-01-11T19:17:52.556Z,9.11
2023-01-11T19:20:19.906Z,9.15
2023-01-11T19:22:46.736Z,9.08
2023-01-11T19:25:13.559Z,9.02
2023-01-11T19:27:40.236Z,9.02
2023-01-11T19:30:08.081Z,9.04
2023-01-11T19:32:34.995Z,9.09
2023-01-11T19:35:02.268Z,9.00
2023-01-11T19:37:34.120Z,9.06
2023-01-11T19:40:01.154Z,9.05
2023-01-11T19:42:29.038Z,9.04
2023-01-11T19:44:56.129Z,9.03
2023-01-11T19:47:23.272Z,9.03
2023-01-11T19:49:49.946Z,9.14
2023-01-11T19:52:19.413Z,9.11
2023-01-11T19:54:46.475Z,9.20
2023-01-11T19:57:14.908Z,9.16
2023-01-11T19:59:42.932Z,9.12
2023-01-11T20:02:11.800Z,9.12
2023-01-11T20:04:39.296Z,9.15
2023-01-11T20:07:07.184Z,9.16
2023-01-11T20:09:34.066Z,9.25
2023-01-11T20:12:00.633Z,9.18
2023-01-11T20:14:27.946Z,9.17
2023-01-11T20:16:54.873Z,9.20
2023-01-11T20:19:21.944Z,9.16
2023-01-11T20:21:49.094Z,9.14
2023-01-11T20:24:15.835Z,9.15
2023-01-11T20:26:43.169Z,9.22
2023-01-11T20:29:10.081Z,9.19
2023-01-11T20:31:37.777Z,9.17
2023-01-11T20:34:09.871Z,9.12
2023-01-11T20:36:36.852Z,9.27
2023-01-11T20:39:04.091Z,9.25
2023-01-11T20:41:52.323Z,9.24
2023-01-11T20:44:20.484Z,9.22
2023-01-11T20:46:48.313Z,9.30
2023-01-11T20:49:16.070Z,9.35
2023-01-11T20:51:42.910Z,9.30
2023-01-11T20:54:10.327Z,9.32
2023-01-11T20:56:38.707Z,9.28
2023-01-11T20:59:06.808Z,9.36
2023-01-11T21:01:33.938Z,9.42
2023-01-11T21:04:02.175Z,9.37
2023-01-11T21:06:30.510Z,9.38
2023-01-11T21:08:58.270Z,9.33
2023-01-11T21:11:25.655Z,9.32
2023-01-11T21:13:53.449Z,9.25
2023-01-11T21:16:22.468Z,9.21
2023-01-11T21:18:53.960Z,9.27
2023-01-11T21:21:21.082Z,9.23
2023-01-11T21:23:47.978Z,9.22
2023-01-11T21:26:18.174Z,9.18
2023-01-11T21:28:49.413Z,9.19
2023-01-11T21:31:17.762Z,9.12
2023-01-11T21:33:44.757Z,9.17
2023-01-11T21:36:12.793Z,9.20
2023-01-11T21:38:39.903Z,9.23
2023-01-11T21:41:17.504Z,9.40
2023-01-11T21:43:44.898Z,9.37
2023-01-11T21:46:12.698Z,9.44
2023-01-11T21:48:39.885Z,9.39
2023-01-11T21:51:09.959Z,9.43
2023-01-11T21:53:37.297Z,9.51
2023-01-11T21:56:05.283Z,9.50
2023-01-11T21:58:32.897Z,9.57
2023-01-11T22:00:59.970Z,9.58
2023-01-11T22:03:28.121Z,9.59
2023-01-11T22:06:01.455Z,9.52
2023-01-11T22:08:28.948Z,9.50
2023-01-11T22:10:59.579Z,9.50
2023-01-11T22:13:30.065Z,9.48
2023-01-11T22:16:04.265Z,9.43
2023-01-11T22:18:31.865Z,9.49
2023-01-11T22:21:12.606Z,9.53
2023-01-11T22:23:40.290Z,9.45
2023-01-11T22:26:09.109Z,9.48
2023-01-11T22:28:54.462Z,9.49
2023-01-11T22:31:22.013Z,9.44
2023-01-11T22:33:50.073Z,9.41
2023-01-11T22:36:16.983Z,9.38
2023-01-11T22:38:43.846Z,9.38
2023-01-11T22:41:12.836Z,9.30
2023-01-11T22:43:42.261Z,9.27
2023-01-11T22:46:12.576Z,9.26
2023-01-11T22:48:39.453Z,9.18
2023-01-11T22:51:06.953Z,9.04
2023-01-11T22:53:38.019Z,9.02
2023-01-11T22:56:04.917Z,9.02
2023-01-11T22:58:32.409Z,8.89
2023-01-11T23:01:09.066Z,8.86
2023-01-11T23:03:36.109Z,8.81
2023-01-11T23:06:03.123Z,8.85
2023-01-11T23:08:30.001Z,8.70
2023-01-11T23:10:59.970Z,8.68
2023-01-11T23:13:47.208Z,8.62
2023-01-11T23:16:15.048Z,8.68
2023-01-11T23:18:42.326Z,8.59
2023-01-11T23:21:09.584Z,8.58
2023-01-11T23:23:38.074Z,8.54
2023-01-11T23:26:05.499Z,8.48
2023-01-11T23:28:33.985Z,8.57
2023-01-11T23:31:00.639Z,8.46
2023-01-11T23:33:27.244Z,8.48
2023-01-11T23:35:58.195Z,8.51
2023-01-11T23:38:25.398Z,8.53
2023-01-11T23:41:13.732Z,8.43
2023-01-11T23:43:40.489Z,8.46
2023-01-11T23:46:26.137Z,8.46
2023-01-11T23:48:52.828Z,8.40
2023-01-11T23:51:20.391Z,8.41
2023-01-11T23:53:47.067Z,8.39
2023-01-11T23:56:15.099Z,8.31
2023-01-11T23:58:41.981Z,8.40
